sensor_id;sensor_type;location;lat;lon;timestamp;temperature;humidity
981;DHT22;479;53.514;9.994;2023-03-04T00:00:24;6.40;99.90
981;DHT22;479;53.514;9.994;2023-03-04T00:02:51;6.50;99.90
981;DHT22;479;53.514;9.994;2023-03-04T00:05:18;6.50;99.90
981;DHT22;479;53.514;9.994;2023-03-04T00:07:45;6.50;99.90
981;DHT22;479;53.514;9.994;2023-03-04T00:10:11;6.50;99.90
981;DHT22;479;53.514;9.994;2023-03-04T00:12:40;6.50;99.90
981;DHT22;479;53.514;9.994;2023-03-04T00:15:08;6.60;99.90
981;DHT22;479;53.514;9.994;2023-03-04T00:17:35;6.60;99.90
981;DHT22;479;53.514;9.994;2023-03-04T00:20:02;6.50;99.90
981;DHT22;479;53.514;9.994;2023-03-04T00:22:29;6.50;99.90
981;DHT22;479;53.514;9.994;2023-03-04T00:24:56;6.40;99.90
981;DHT22;479;53.514;9.994;2023-03-04T00:27:23;6.50;99.90
981;DHT22;479;53.514;9.994;2023-03-04T00:29:51;6.50;99.90
981;DHT22;479;53.514;9.994;2023-03-04T00:32:18;6.60;99.90
981;DHT22;479;53.514;9.994;2023-03-04T00:34:45;6.60;99.90
981;DHT22;479;53.514;9.994;2023-03-04T00:37:12;6.70;99.90
981;DHT22;479;53.514;9.994;2023-03-04T00:39:39;6.70;99.90
981;DHT22;479;53.514;9.994;2023-03-04T00:42:05;6.60;99.90
981;DHT22;479;53.514;9.994;2023-03-04T00:44:32;6.60;99.90
981;DHT22;479;53.514;9.994;2023-03-04T00:47:00;6.70;99.90
981;DHT22;479;53.514;9.994;2023-03-04T00:49:27;6.60;99.90
981;DHT22;479;53.514;9.994;2023-03-04T00:51:54;6.60;99.90
981;DHT22;479;53.514;9.994;2023-03-04T00:54:21;6.70;99.90
981;DHT22;479;53.514;9.994;2023-03-04T00:56:48;6.70;99.90
981;DHT22;479;53.514;9.994;2023-03-04T00:59:15;6.60;99.90
981;DHT22;479;53.514;9.994;2023-03-04T01:01:42;6.50;99.90
981;DHT22;479;53.514;9.994;2023-03-04T01:04:10;6.60;99.90
981;DHT22;479;53.514;9.994;2023-03-04T01:06:37;6.50;99.90
981;DHT22;479;53.514;9.994;2023-03-04T01:09:04;6.50;99.90
981;DHT22;479;53.514;9.994;2023-03-04T01:11:31;6.60;99.90
981;DHT22;479;53.514;9.994;2023-03-04T01:13:58;6.50;99.90
981;DHT22;479;53.514;9.994;2023-03-04T01:16:25;6.50;99.90
981;DHT22;479;53.514;9.994;2023-03-04T01:18:53;6.60;99.90
981;DHT22;479;53.514;9.994;2023-03-04T01:21:21;6.50;99.90
981;DHT22;479;53.514;9.994;2023-03-04T01:23:48;6.50;99.90
981;DHT22;479;53.514;9.994;2023-03-04T01:26:15;6.50;99.90
981;DHT22;479;53.514;9.994;2023-03-04T01:28:42;6.40;99.90
981;DHT22;479;53.514;9.994;2023-03-04T01:31:09;6.40;99.90
981;DHT22;479;53.514;9.994;2023-03-04T01:33:36;6.50;99.90
981;DHT22;479;53.514;9.994;2023-03-04T01:36:03;6.50;99.90
981;DHT22;479;53.514;9.994;2023-03-04T01:38:31;6.50;99.90
981;DHT22;479;53.514;9.994;2023-03-04T01:41:00;6.40;99.90
981;DHT22;479;53.514;9.994;2023-03-04T01:43:29;6.50;99.90
981;DHT22;479;53.514;9.994;2023-03-04T01:45:57;6.50;99.90
981;DHT22;479;53.514;9.994;2023-03-04T01:48:26;6.50;99.90
981;DHT22;479;53.514;9.994;2023-03-04T01:50:54;6.50;99.90
981;DHT22;479;53.514;9.994;2023-03-04T01:53:22;6.50;99.90
981;DHT22;479;53.514;9.994;2023-03-04T01:55:51;6.60;99.90
981;DHT22;479;53.514;9.994;2023-03-04T01:58:20;6.60;99.90
981;DHT22;479;53.514;9.994;2023-03-04T02:00:46;6.50;99.90
981;DHT22;479;53.514;9.994;2023-03-04T02:03:16;6.40;99.90
981;DHT22;479;53.514;9.994;2023-03-04T02:05:47;6.50;99.90
981;DHT22;479;53.514;9.994;2023-03-04T02:08:18;6.50;99.90
981;DHT22;479;53.514;9.994;2023-03-04T02:10:45;6.50;99.90
981;DHT22;479;53.514;9.994;2023-03-04T02:13:14;6.60;99.90
981;DHT22;479;53.514;9.994;2023-03-04T02:15:42;6.60;99.90
981;DHT22;479;53.514;9.994;2023-03-04T02:18:14;6.50;99.90
981;DHT22;479;53.514;9.994;2023-03-04T02:20:47;6.40;99.90
981;DHT22;479;53.514;9.994;2023-03-04T02:23:20;6.50;99.90
981;DHT22;479;53.514;9.994;2023-03-04T02:26:02;6.60;99.90
981;DHT22;479;53.514;9.994;2023-03-04T02:28:29;6.50;99.90
981;DHT22;479;53.514;9.994;2023-03-04T02:30:56;6.50;99.90
981;DHT22;479;53.514;9.994;2023-03-04T02:33:23;6.50;99.90
981;DHT22;479;53.514;9.994;2023-03-04T02:35:50;6.50;99.90
981;DHT22;479;53.514;9.994;2023-03-04T02:38:18;6.50;99.90
981;DHT22;479;53.514;9.994;2023-03-04T02:40:47;6.50;99.90
981;DHT22;479;53.514;9.994;2023-03-04T02:43:16;6.60;99.90
981;DHT22;479;53.514;9.994;2023-03-04T02:45:44;6.60;99.90
981;DHT22;479;53.514;9.994;2023-03-04T02:48:13;6.60;99.90
981;DHT22;479;53.514;9.994;2023-03-04T02:50:42;6.60;99.90
981;DHT22;479;53.514;9.994;2023-03-04T02:53:10;6.60;99.90
981;DHT22;479;53.514;9.994;2023-03-04T02:55:37;6.60;99.90
981;DHT22;479;53.514;9.994;2023-03-04T02:58:05;6.60;99.90
981;DHT22;479;53.514;9.994;2023-03-04T03:00:33;6.60;99.90
981;DHT22;479;53.514;9.994;2023-03-04T03:03:01;6.60;99.90
981;DHT22;479;53.514;9.994;2023-03-04T03:05:31;6.60;99.90
981;DHT22;479;53.514;9.994;2023-03-04T03:07:58;6.60;99.90
981;DHT22;479;53.514;9.994;2023-03-04T03:10:26;6.50;99.90
981;DHT22;479;53.514;9.994;2023-03-04T03:12:53;6.60;99.90
981;DHT22;479;53.514;9.994;2023-03-04T03:15:20;6.50;99.90
981;DHT22;479;53.514;9.994;2023-03-04T03:17:48;6.60;99.90
981;DHT22;479;53.514;9.994;2023-03-04T03:20:16;6.60;99.90
981;DHT22;479;53.514;9.994;2023-03-04T03:22:43;6.60;99.90
981;DHT22;479;53.514;9.994;2023-03-04T03:25:11;6.50;99.90
981;DHT22;479;53.514;9.994;2023-03-04T03:27:39;6.50;99.90
981;DHT22;479;53.514;9.994;2023-03-04T03:30:08;6.60;99.90
981;DHT22;479;53.514;9.994;2023-03-04T03:32:36;6.60;99.90
981;DHT22;479;53.514;9.994;2023-03-04T03:35:05;6.60;99.90
981;DHT22;479;53.514;9.994;2023-03-04T03:37:32;6.60;99.90
981;DHT22;479;53.514;9.994;2023-03-04T03:39:59;6.50;99.90
981;DHT22;479;53.514;9.994;2023-03-04T03:42:26;6.40;99.90
981;DHT22;479;53.514;9.994;2023-03-04T03:44:53;6.40;99.90
981;DHT22;479;53.514;9.994;2023-03-04T03:47:20;6.30;99.90
981;DHT22;479;53.514;9.994;2023-03-04T03:49:47;6.30;99.90
981;DHT22;479;53.514;9.994;2023-03-04T03:52:15;6.30;99.90
981;DHT22;479;53.514;9.994;2023-03-04T03:54:42;6.30;99.90
981;DHT22;479;53.514;9.994;2023-03-04T03:57:09;6.20;99.90
981;DHT22;479;53.514;9.994;2023-03-04T03:59:36;6.20;99.90
981;DHT22;479;53.514;9.994;2023-03-04T04:02:03;6.20;99.90
981;DHT22;479;53.514;9.994;2023-03-04T04:04:30;6.10;99.90
981;DHT22;479;53.514;9.994;2023-03-04T04:06:56;6.10;99.90
981;DHT22;479;53.514;9.994;2023-03-04T04:09:25;6.20;99.90
981;DHT22;479;53.514;9.994;2023-03-04T04:11:52;6.40;99.90
981;DHT22;479;53.514;9.994;2023-03-04T04:14:19;6.40;99.90
981;DHT22;479;53.514;9.994;2023-03-04T04:16:46;6.30;99.90
981;DHT22;479;53.514;9.994;2023-03-04T04:19:16;6.30;99.90
981;DHT22;479;53.514;9.994;2023-03-04T04:21:43;6.30;99.90
981;DHT22;479;53.514;9.994;2023-03-04T04:24:11;6.30;99.90
981;DHT22;479;53.514;9.994;2023-03-04T04:26:39;6.30;99.90
981;DHT22;479;53.514;9.994;2023-03-04T04:29:07;6.30;99.90
981;DHT22;479;53.514;9.994;2023-03-04T04:31:34;6.40;99.90
981;DHT22;479;53.514;9.994;2023-03-04T04:34:01;6.40;99.90
981;DHT22;479;53.514;9.994;2023-03-04T04:36:28;6.40;99.90
981;DHT22;479;53.514;9.994;2023-03-04T04:38:55;6.30;99.90
981;DHT22;479;53.514;9.994;2023-03-04T04:41:24;6.40;99.90
981;DHT22;479;53.514;9.994;2023-03-04T04:43:52;6.40;99.90
981;DHT22;479;53.514;9.994;2023-03-04T04:46:19;6.40;99.90
981;DHT22;479;53.514;9.994;2023-03-04T04:48:46;6.50;99.90
981;DHT22;479;53.514;9.994;2023-03-04T04:51:13;6.40;99.90
981;DHT22;479;53.514;9.994;2023-03-04T04:53:40;6.30;99.90
981;DHT22;479;53.514;9.994;2023-03-04T04:56:09;6.30;99.90
981;DHT22;479;53.514;9.994;2023-03-04T04:58:36;6.30;99.90
981;DHT22;479;53.514;9.994;2023-03-04T05:01:05;6.40;99.90
981;DHT22;479;53.514;9.994;2023-03-04T05:03:33;6.40;99.90
981;DHT22;479;53.514;9.994;2023-03-04T05:06:00;6.40;99.90
981;DHT22;479;53.514;9.994;2023-03-04T05:08:27;6.40;99.90
981;DHT22;479;53.514;9.994;2023-03-04T05:10:54;6.30;99.90
981;DHT22;479;53.514;9.994;2023-03-04T05:13:21;6.20;99.90
981;DHT22;479;53.514;9.994;2023-03-04T05:15:50;6.20;99.90
981;DHT22;479;53.514;9.994;2023-03-04T05:18:19;6.10;99.90
981;DHT22;479;53.514;9.994;2023-03-04T05:20:49;6.10;99.90
981;DHT22;479;53.514;9.994;2023-03-04T05:23:17;6.10;99.90
981;DHT22;479;53.514;9.994;2023-03-04T05:25:44;6.10;99.90
981;DHT22;479;53.514;9.994;2023-03-04T05:28:11;6.10;99.90
981;DHT22;479;53.514;9.994;2023-03-04T05:30:38;6.20;99.90
981;DHT22;479;53.514;9.994;2023-03-04T05:33:06;6.30;99.90
981;DHT22;479;53.514;9.994;2023-03-04T05:35:35;6.30;99.90
981;DHT22;479;53.514;9.994;2023-03-04T05:38:03;6.20;99.90
981;DHT22;479;53.514;9.994;2023-03-04T05:40:30;6.20;99.90
981;DHT22;479;53.514;9.994;2023-03-04T05:42:57;6.20;99.90
981;DHT22;479;53.514;9.994;2023-03-04T05:45:24;6.30;99.90
981;DHT22;479;53.514;9.994;2023-03-04T05:47:52;6.30;99.90
981;DHT22;479;53.514;9.994;2023-03-04T05:50:20;6.30;99.90
981;DHT22;479;53.514;9.994;2023-03-04T05:52:49;6.20;99.90
981;DHT22;479;53.514;9.994;2023-03-04T05:55:16;6.20;99.90
981;DHT22;479;53.514;9.994;2023-03-04T05:57:44;6.30;99.90
981;DHT22;479;53.514;9.994;2023-03-04T06:00:13;6.30;99.90
981;DHT22;479;53.514;9.994;2023-03-04T06:02:41;6.50;99.90
981;DHT22;479;53.514;9.994;2023-03-04T06:05:08;6.60;99.90
981;DHT22;479;53.514;9.994;2023-03-04T06:07:36;6.50;99.90
981;DHT22;479;53.514;9.994;2023-03-04T06:10:06;6.50;99.90
981;DHT22;479;53.514;9.994;2023-03-04T06:12:33;6.40;99.90
981;DHT22;479;53.514;9.994;2023-03-04T06:15:00;6.50;99.90
981;DHT22;479;53.514;9.994;2023-03-04T06:17:27;6.50;99.90
981;DHT22;479;53.514;9.994;2023-03-04T06:19:54;6.40;99.90
981;DHT22;479;53.514;9.994;2023-03-04T06:22:21;6.50;99.90
981;DHT22;479;53.514;9.994;2023-03-04T06:24:48;6.50;99.90
981;DHT22;479;53.514;9.994;2023-03-04T06:27:16;6.40;99.90
981;DHT22;479;53.514;9.994;2023-03-04T06:29:43;6.40;99.90
981;DHT22;479;53.514;9.994;2023-03-04T06:32:10;6.30;99.90
981;DHT22;479;53.514;9.994;2023-03-04T06:34:37;6.50;99.90
981;DHT22;479;53.514;9.994;2023-03-04T06:37:04;6.40;99.90
981;DHT22;479;53.514;9.994;2023-03-04T06:39:31;6.40;99.90
981;DHT22;479;53.514;9.994;2023-03-04T06:41:58;6.30;99.90
981;DHT22;479;53.514;9.994;2023-03-04T06:44:26;6.30;99.90
981;DHT22;479;53.514;9.994;2023-03-04T06:46:53;6.40;99.90
981;DHT22;479;53.514;9.994;2023-03-04T06:49:20;6.40;99.90
981;DHT22;479;53.514;9.994;2023-03-04T06:51:47;6.40;99.90
981;DHT22;479;53.514;9.994;2023-03-04T06:54:14;6.40;99.90
981;DHT22;479;53.514;9.994;2023-03-04T06:56:41;6.50;99.90
981;DHT22;479;53.514;9.994;2023-03-04T06:59:08;6.40;99.90
981;DHT22;479;53.514;9.994;2023-03-04T07:01:36;6.40;99.90
981;DHT22;479;53.514;9.994;2023-03-04T07:04:03;6.50;99.90
981;DHT22;479;53.514;9.994;2023-03-04T07:06:31;6.40;99.90
981;DHT22;479;53.514;9.994;2023-03-04T07:08:58;6.30;99.90
981;DHT22;479;53.514;9.994;2023-03-04T07:11:25;6.10;99.90
981;DHT22;479;53.514;9.994;2023-03-04T07:13:52;6.10;99.90
981;DHT22;479;53.514;9.994;2023-03-04T07:16:20;6.10;99.90
981;DHT22;479;53.514;9.994;2023-03-04T07:18:49;6.20;99.90
981;DHT22;479;53.514;9.994;2023-03-04T07:21:17;6.20;99.90
981;DHT22;479;53.514;9.994;2023-03-04T07:23:44;6.20;99.90
981;DHT22;479;53.514;9.994;2023-03-04T07:26:11;6.20;99.90
981;DHT22;479;53.514;9.994;2023-03-04T07:28:38;6.10;99.90
981;DHT22;479;53.514;9.994;2023-03-04T07:31:09;6.10;99.90
981;DHT22;479;53.514;9.994;2023-03-04T07:33:36;6.10;99.90
981;DHT22;479;53.514;9.994;2023-03-04T07:36:05;6.10;99.90
981;DHT22;479;53.514;9.994;2023-03-04T07:38:32;6.00;99.90
981;DHT22;479;53.514;9.994;2023-03-04T07:40:59;6.00;99.90
981;DHT22;479;53.514;9.994;2023-03-04T07:43:25;6.10;99.90
981;DHT22;479;53.514;9.994;2023-03-04T07:45:58;6.10;99.90
981;DHT22;479;53.514;9.994;2023-03-04T07:48:25;6.10;99.90
981;DHT22;479;53.514;9.994;2023-03-04T07:51:07;6.20;99.90
981;DHT22;479;53.514;9.994;2023-03-04T07:53:34;6.30;99.90
981;DHT22;479;53.514;9.994;2023-03-04T07:56:01;6.20;99.90
981;DHT22;479;53.514;9.994;2023-03-04T07:58:29;6.20;99.90
981;DHT22;479;53.514;9.994;2023-03-04T08:00:56;6.20;99.90
981;DHT22;479;53.514;9.994;2023-03-04T08:03:23;6.10;99.90
981;DHT22;479;53.514;9.994;2023-03-04T08:05:50;6.20;99.90
981;DHT22;479;53.514;9.994;2023-03-04T08:08:18;6.20;99.90
981;DHT22;479;53.514;9.994;2023-03-04T08:10:45;6.30;99.90
981;DHT22;479;53.514;9.994;2023-03-04T08:13:12;6.20;99.90
981;DHT22;479;53.514;9.994;2023-03-04T08:15:40;6.10;99.90
981;DHT22;479;53.514;9.994;2023-03-04T08:18:08;6.30;99.90
981;DHT22;479;53.514;9.994;2023-03-04T08:20:35;6.30;99.90
981;DHT22;479;53.514;9.994;2023-03-04T08:23:01;6.30;99.90
981;DHT22;479;53.514;9.994;2023-03-04T08:25:30;6.30;99.90
981;DHT22;479;53.514;9.994;2023-03-04T08:27:57;6.30;99.90
981;DHT22;479;53.514;9.994;2023-03-04T08:30:24;6.20;99.90
981;DHT22;479;53.514;9.994;2023-03-04T08:32:51;6.10;99.90
981;DHT22;479;53.514;9.994;2023-03-04T08:35:18;6.10;99.90
981;DHT22;479;53.514;9.994;2023-03-04T08:37:45;6.10;99.90
981;DHT22;479;53.514;9.994;2023-03-04T08:40:13;6.30;99.90
981;DHT22;479;53.514;9.994;2023-03-04T08:42:41;6.30;99.90
981;DHT22;479;53.514;9.994;2023-03-04T08:45:09;6.20;99.90
981;DHT22;479;53.514;9.994;2023-03-04T08:47:36;6.20;99.90
981;DHT22;479;53.514;9.994;2023-03-04T08:50:05;6.30;99.90
981;DHT22;479;53.514;9.994;2023-03-04T08:52:32;6.20;99.90
981;DHT22;479;53.514;9.994;2023-03-04T08:55:00;6.10;99.90
981;DHT22;479;53.514;9.994;2023-03-04T08:57:27;6.00;99.90
981;DHT22;479;53.514;9.994;2023-03-04T08:59:55;6.00;99.90
981;DHT22;479;53.514;9.994;2023-03-04T09:02:22;5.90;99.90
981;DHT22;479;53.514;9.994;2023-03-04T09:04:49;6.00;99.90
981;DHT22;479;53.514;9.994;2023-03-04T09:07:16;6.00;99.90
981;DHT22;479;53.514;9.994;2023-03-04T09:09:42;6.00;99.90
981;DHT22;479;53.514;9.994;2023-03-04T09:12:09;6.00;99.90
981;DHT22;479;53.514;9.994;2023-03-04T09:14:36;6.10;99.90
981;DHT22;479;53.514;9.994;2023-03-04T09:17:06;6.20;99.90
981;DHT22;479;53.514;9.994;2023-03-04T09:19:33;6.30;99.90
981;DHT22;479;53.514;9.994;2023-03-04T09:22:00;6.30;99.90
981;DHT22;479;53.514;9.994;2023-03-04T09:24:27;6.40;99.90
981;DHT22;479;53.514;9.994;2023-03-04T09:26:54;6.40;99.90
981;DHT22;479;53.514;9.994;2023-03-04T09:29:21;6.50;99.90
981;DHT22;479;53.514;9.994;2023-03-04T09:31:49;6.50;99.90
981;DHT22;479;53.514;9.994;2023-03-04T09:34:17;6.40;99.90
981;DHT22;479;53.514;9.994;2023-03-04T09:36:44;6.50;99.90
981;DHT22;479;53.514;9.994;2023-03-04T09:39:12;6.60;99.90
981;DHT22;479;53.514;9.994;2023-03-04T09:41:44;6.60;99.90
981;DHT22;479;53.514;9.994;2023-03-04T09:44:18;6.50;99.90
981;DHT22;479;53.514;9.994;2023-03-04T09:46:47;6.50;99.90
981;DHT22;479;53.514;9.994;2023-03-04T09:49:17;6.50;99.90
981;DHT22;479;53.514;9.994;2023-03-04T09:51:54;6.70;99.90
981;DHT22;479;53.514;9.994;2023-03-04T09:54:38;6.70;99.90
981;DHT22;479;53.514;9.994;2023-03-04T09:57:20;6.50;99.90
981;DHT22;479;53.514;9.994;2023-03-04T09:59:56;6.40;99.90
981;DHT22;479;53.514;9.994;2023-03-04T10:02:43;6.50;99.90
981;DHT22;479;53.514;9.994;2023-03-04T10:05:17;6.50;99.90
981;DHT22;479;53.514;9.994;2023-03-04T10:07:48;6.70;99.90
981;DHT22;479;53.514;9.994;2023-03-04T10:10:24;6.80;99.90
981;DHT22;479;53.514;9.994;2023-03-04T10:12:53;6.60;99.90
981;DHT22;479;53.514;9.994;2023-03-04T10:15:25;6.60;99.90
981;DHT22;479;53.514;9.994;2023-03-04T10:17:58;6.60;99.90
981;DHT22;479;53.514;9.994;2023-03-04T10:20:35;6.60;99.90
981;DHT22;479;53.514;9.994;2023-03-04T10:23:10;6.60;99.90
981;DHT22;479;53.514;9.994;2023-03-04T10:25:43;6.60;99.90
981;DHT22;479;53.514;9.994;2023-03-04T10:28:14;6.50;99.90
981;DHT22;479;53.514;9.994;2023-03-04T10:30:47;6.60;99.90
981;DHT22;479;53.514;9.994;2023-03-04T10:33:17;6.90;99.90
981;DHT22;479;53.514;9.994;2023-03-04T10:35:50;7.00;99.90
981;DHT22;479;53.514;9.994;2023-03-04T10:38:19;6.70;99.90
981;DHT22;479;53.514;9.994;2023-03-04T10:40:47;6.60;99.90
981;DHT22;479;53.514;9.994;2023-03-04T10:43:16;6.50;99.90
981;DHT22;479;53.514;9.994;2023-03-04T10:45:43;6.40;99.90
981;DHT22;479;53.514;9.994;2023-03-04T10:48:18;6.60;99.90
981;DHT22;479;53.514;9.994;2023-03-04T10:50:47;6.80;99.90
981;DHT22;479;53.514;9.994;2023-03-04T10:53:27;6.80;99.90
981;DHT22;479;53.514;9.994;2023-03-04T10:55:58;6.60;99.90
981;DHT22;479;53.514;9.994;2023-03-04T10:58:25;6.60;99.90
981;DHT22;479;53.514;9.994;2023-03-04T11:01:03;6.80;99.90
981;DHT22;479;53.514;9.994;2023-03-04T11:03:32;6.80;99.90
981;DHT22;479;53.514;9.994;2023-03-04T11:06:20;6.70;99.90
981;DHT22;479;53.514;9.994;2023-03-04T11:08:54;6.80;99.90
981;DHT22;479;53.514;9.994;2023-03-04T11:11:23;6.80;99.90
981;DHT22;479;53.514;9.994;2023-03-04T11:13:53;7.00;99.90
981;DHT22;479;53.514;9.994;2023-03-04T11:16:24;7.00;99.90
981;DHT22;479;53.514;9.994;2023-03-04T11:18:54;7.20;99.90
981;DHT22;479;53.514;9.994;2023-03-04T11:21:27;7.30;99.90
981;DHT22;479;53.514;9.994;2023-03-04T11:23:58;7.20;99.90
981;DHT22;479;53.514;9.994;2023-03-04T11:26:28;7.10;99.90
981;DHT22;479;53.514;9.994;2023-03-04T11:28:59;7.20;99.90
981;DHT22;479;53.514;9.994;2023-03-04T11:31:31;7.10;99.90
981;DHT22;479;53.514;9.994;2023-03-04T11:34:02;7.30;99.90
981;DHT22;479;53.514;9.994;2023-03-04T11:36:38;7.30;99.90
981;DHT22;479;53.514;9.994;2023-03-04T11:39:15;7.20;99.90
981;DHT22;479;53.514;9.994;2023-03-04T11:41:49;7.00;99.90
981;DHT22;479;53.514;9.994;2023-03-04T11:44:17;7.10;99.90
981;DHT22;479;53.514;9.994;2023-03-04T11:46:56;7.00;99.90
981;DHT22;479;53.514;9.994;2023-03-04T11:52:32;7.00;99.90
981;DHT22;479;53.514;9.994;2023-03-04T11:55:17;6.90;99.90
981;DHT22;479;53.514;9.994;2023-03-04T11:57:54;7.20;99.90
981;DHT22;479;53.514;9.994;2023-03-04T12:00:32;7.10;99.90
981;DHT22;479;53.514;9.994;2023-03-04T12:03:25;7.10;99.90
981;DHT22;479;53.514;9.994;2023-03-04T12:05:58;7.20;99.90
981;DHT22;479;53.514;9.994;2023-03-04T12:08:42;7.40;99.90
981;DHT22;479;53.514;9.994;2023-03-04T12:11:21;7.60;99.90
981;DHT22;479;53.514;9.994;2023-03-04T12:14:01;7.70;99.90
981;DHT22;479;53.514;9.994;2023-03-04T12:19:33;8.20;99.90
981;DHT22;479;53.514;9.994;2023-03-04T12:22:12;7.80;99.90
981;DHT22;479;53.514;9.994;2023-03-04T12:25:01;7.70;99.90
981;DHT22;479;53.514;9.994;2023-03-04T12:27:36;7.70;99.90
981;DHT22;479;53.514;9.994;2023-03-04T12:30:17;7.50;99.90
981;DHT22;479;53.514;9.994;2023-03-04T12:32:52;7.50;99.90
981;DHT22;479;53.514;9.994;2023-03-04T12:35:32;7.50;99.90
981;DHT22;479;53.514;9.994;2023-03-04T12:38:11;7.50;99.90
981;DHT22;479;53.514;9.994;2023-03-04T12:40:46;7.40;99.90
981;DHT22;479;53.514;9.994;2023-03-04T12:43:41;7.30;99.90
981;DHT22;479;53.514;9.994;2023-03-04T12:46:22;7.40;99.90
981;DHT22;479;53.514;9.994;2023-03-04T12:49:01;7.60;99.90
981;DHT22;479;53.514;9.994;2023-03-04T12:51:41;7.80;99.90
981;DHT22;479;53.514;9.994;2023-03-04T12:54:20;7.50;99.90
981;DHT22;479;53.514;9.994;2023-03-04T12:56:54;7.40;99.90
981;DHT22;479;53.514;9.994;2023-03-04T12:59:24;7.40;99.90
981;DHT22;479;53.514;9.994;2023-03-04T13:01:55;7.30;99.90
981;DHT22;479;53.514;9.994;2023-03-04T13:04:28;7.30;99.90
981;DHT22;479;53.514;9.994;2023-03-04T13:07:09;7.30;99.90
981;DHT22;479;53.514;9.994;2023-03-04T13:09:43;7.20;99.90
981;DHT22;479;53.514;9.994;2023-03-04T13:12:16;7.10;99.90
981;DHT22;479;53.514;9.994;2023-03-04T13:15:16;7.00;99.90
981;DHT22;479;53.514;9.994;2023-03-04T13:17:47;7.10;99.90
981;DHT22;479;53.514;9.994;2023-03-04T13:20:21;7.10;99.90
981;DHT22;479;53.514;9.994;2023-03-04T13:22:54;7.10;99.90
981;DHT22;479;53.514;9.994;2023-03-04T13:25:33;7.00;99.90
981;DHT22;479;53.514;9.994;2023-03-04T13:28:16;7.30;99.90
981;DHT22;479;53.514;9.994;2023-03-04T13:31:15;7.60;99.90
981;DHT22;479;53.514;9.994;2023-03-04T13:34:39;7.60;99.90
981;DHT22;479;53.514;9.994;2023-03-04T13:36:55;7.60;99.90
981;DHT22;479;53.514;9.994;2023-03-04T13:39:29;7.50;99.90
981;DHT22;479;53.514;9.994;2023-03-04T13:41:56;7.40;99.90
981;DHT22;479;53.514;9.994;2023-03-04T13:44:32;7.30;99.90
981;DHT22;479;53.514;9.994;2023-03-04T13:47:07;7.20;99.90
981;DHT22;479;53.514;9.994;2023-03-04T13:49:35;7.10;99.90
981;DHT22;479;53.514;9.994;2023-03-04T13:52:36;7.00;99.90
981;DHT22;479;53.514;9.994;2023-03-04T13:55:32;7.00;99.90
981;DHT22;479;53.514;9.994;2023-03-04T13:58:01;7.10;99.90
981;DHT22;479;53.514;9.994;2023-03-04T14:00:28;7.10;99.90
981;DHT22;479;53.514;9.994;2023-03-04T14:03:11;7.00;99.90
981;DHT22;479;53.514;9.994;2023-03-04T14:05:39;7.30;99.90
981;DHT22;479;53.514;9.994;2023-03-04T14:08:18;7.40;99.90
981;DHT22;479;53.514;9.994;2023-03-04T14:10:54;7.70;99.90
981;DHT22;479;53.514;9.994;2023-03-04T14:13:21;7.50;99.90
981;DHT22;479;53.514;9.994;2023-03-04T14:15:54;7.30;98.90
981;DHT22;479;53.514;9.994;2023-03-04T14:18:21;7.30;99.90
981;DHT22;479;53.514;9.994;2023-03-04T14:20:50;7.30;99.50
981;DHT22;479;53.514;9.994;2023-03-04T14:23:26;7.30;99.70
981;DHT22;479;53.514;9.994;2023-03-04T14:26:04;7.40;99.70
981;DHT22;479;53.514;9.994;2023-03-04T14:28:31;7.30;98.60
981;DHT22;479;53.514;9.994;2023-03-04T14:30:58;7.20;99.20
981;DHT22;479;53.514;9.994;2023-03-04T14:33:26;7.10;98.90
981;DHT22;479;53.514;9.994;2023-03-04T14:35:55;7.10;98.90
981;DHT22;479;53.514;9.994;2023-03-04T14:38:25;7.20;99.00
981;DHT22;479;53.514;9.994;2023-03-04T14:40:54;7.00;98.90
981;DHT22;479;53.514;9.994;2023-03-04T14:43:23;7.30;99.90
981;DHT22;479;53.514;9.994;2023-03-04T14:45:52;7.30;99.90
981;DHT22;479;53.514;9.994;2023-03-04T14:48:21;7.10;99.90
981;DHT22;479;53.514;9.994;2023-03-04T14:50:51;7.00;99.90
981;DHT22;479;53.514;9.994;2023-03-04T14:53:20;7.00;99.90
981;DHT22;479;53.514;9.994;2023-03-04T14:55:57;6.80;99.90
981;DHT22;479;53.514;9.994;2023-03-04T14:58:25;6.80;99.90
981;DHT22;479;53.514;9.994;2023-03-04T15:01:12;6.80;99.90
981;DHT22;479;53.514;9.994;2023-03-04T15:03:39;6.90;99.90
981;DHT22;479;53.514;9.994;2023-03-04T15:06:15;6.90;99.90
981;DHT22;479;53.514;9.994;2023-03-04T15:08:45;7.00;99.90
981;DHT22;479;53.514;9.994;2023-03-04T15:11:22;6.80;99.90
981;DHT22;479;53.514;9.994;2023-03-04T15:13:52;6.70;99.90
981;DHT22;479;53.514;9.994;2023-03-04T15:16:20;6.80;99.90
981;DHT22;479;53.514;9.994;2023-03-04T15:18:56;6.70;99.90
981;DHT22;479;53.514;9.994;2023-03-04T15:21:35;6.60;99.90
981;DHT22;479;53.514;9.994;2023-03-04T15:24:03;6.60;99.90
981;DHT22;479;53.514;9.994;2023-03-04T15:26:33;6.50;99.90
981;DHT22;479;53.514;9.994;2023-03-04T15:29:10;6.30;99.90
981;DHT22;479;53.514;9.994;2023-03-04T15:31:40;6.30;99.90
981;DHT22;479;53.514;9.994;2023-03-04T15:34:11;6.30;99.90
981;DHT22;479;53.514;9.994;2023-03-04T15:36:38;6.40;99.90
981;DHT22;479;53.514;9.994;2023-03-04T15:39:08;6.40;99.90
981;DHT22;479;53.514;9.994;2023-03-04T15:41:38;6.30;99.90
981;DHT22;479;53.514;9.994;2023-03-04T15:44:05;6.30;99.90
981;DHT22;479;53.514;9.994;2023-03-04T15:46:32;6.30;99.90
981;DHT22;479;53.514;9.994;2023-03-04T15:48:59;6.30;99.90
981;DHT22;479;53.514;9.994;2023-03-04T15:51:26;6.30;99.90
981;DHT22;479;53.514;9.994;2023-03-04T15:53:55;6.20;99.90
981;DHT22;479;53.514;9.994;2023-03-04T15:56:25;6.20;99.90
981;DHT22;479;53.514;9.994;2023-03-04T15:58:55;6.30;99.90
981;DHT22;479;53.514;9.994;2023-03-04T16:01:23;6.40;99.90
981;DHT22;479;53.514;9.994;2023-03-04T16:03:50;6.40;99.90
981;DHT22;479;53.514;9.994;2023-03-04T16:06:18;6.30;99.90
981;DHT22;479;53.514;9.994;2023-03-04T16:08:49;6.20;99.90
981;DHT22;479;53.514;9.994;2023-03-04T16:11:18;6.10;99.90
981;DHT22;479;53.514;9.994;2023-03-04T16:13:46;6.00;99.90
981;DHT22;479;53.514;9.994;2023-03-04T16:16:15;6.00;99.90
981;DHT22;479;53.514;9.994;2023-03-04T16:18:42;6.10;99.90
981;DHT22;479;53.514;9.994;2023-03-04T16:21:12;6.10;99.90
981;DHT22;479;53.514;9.994;2023-03-04T16:23:42;6.30;99.90
981;DHT22;479;53.514;9.994;2023-03-04T16:26:11;6.20;99.90
981;DHT22;479;53.514;9.994;2023-03-04T16:28:39;6.20;99.90
981;DHT22;479;53.514;9.994;2023-03-04T16:31:07;6.00;99.90
981;DHT22;479;53.514;9.994;2023-03-04T16:33:36;5.90;99.90
981;DHT22;479;53.514;9.994;2023-03-04T16:36:11;5.90;99.90
981;DHT22;479;53.514;9.994;2023-03-04T16:38:39;5.90;99.90
981;DHT22;479;53.514;9.994;2023-03-04T16:41:10;5.80;99.90
981;DHT22;479;53.514;9.994;2023-03-04T16:43:38;5.70;99.90
981;DHT22;479;53.514;9.994;2023-03-04T16:46:05;5.80;99.90
981;DHT22;479;53.514;9.994;2023-03-04T16:48:32;5.90;99.90
981;DHT22;479;53.514;9.994;2023-03-04T16:51:02;6.00;99.90
981;DHT22;479;53.514;9.994;2023-03-04T16:53:33;6.00;99.90
981;DHT22;479;53.514;9.994;2023-03-04T16:56:04;6.00;99.90
981;DHT22;479;53.514;9.994;2023-03-04T16:58:31;5.90;99.90
981;DHT22;479;53.514;9.994;2023-03-04T17:00:59;5.90;99.90
981;DHT22;479;53.514;9.994;2023-03-04T17:03:27;5.80;99.90
981;DHT22;479;53.514;9.994;2023-03-04T17:05:53;5.70;99.90
981;DHT22;479;53.514;9.994;2023-03-04T17:08:22;5.70;99.90
981;DHT22;479;53.514;9.994;2023-03-04T17:10:49;5.50;99.90
981;DHT22;479;53.514;9.994;2023-03-04T17:13:17;5.60;99.90
981;DHT22;479;53.514;9.994;2023-03-04T17:15:43;5.60;99.90